Llica d'Amunt, Spain
Current Conditions -  °F | °C
As of 7:30 AM on Thursday 27 Nov 2014 (Local Time) from LEBL Reporting Station
Few Clouds Few Clouds  
Wind Chill: 11°   Ceiling: Unl
Heat Index: 11°   Visibility: 6mi
Dew Point: 10°   Wind: 9mph
Humidity: 94%   Direction: 340°NNW
Pressure: 29.77"   Gusts: NA
Location:  41.62°N, 2.23°E
Report Text: LEBL 270630Z 34008KT 9999 FEW018 11/10 Q1008 NOSIG
Loading
Personal Weather Stations






























Interactive Weather Map New forecast layout! Learn more

10-Day Weather Forecast

Advertisements
Track Severe Weather on mobile